ADDS METAR Data INFO
IDs: Format: Raw Decoded Include TAF

Data at: 1718 UTC 23 Oct 2017

KFLY 231655Z AUTO 01017G26KT 10SM SCT012 05/M01 A3042 RMK AO2 T00491007
KFLY 231635Z AUTO 01023G27KT 10SM SCT012 04/M01 A3042 RMK AO2 T00401010
KFLY 231615Z AUTO 36017G24KT 10SM SCT012 04/M01 A3044 RMK AO2 T00431010
KFLY 231555Z AUTO 36018G28KT 10SM SCT012 04/M01 A3044 RMK AO2 T00401009
KFLY 231535Z AUTO 01019G28KT 10SM CLR 04/M01 A3044 RMK AO2 T00421007
KFLY 231515Z AUTO 01020G27KT 10SM CLR 04/M01 A3043 RMK AO2 T00351009
KFLY 231455Z AUTO 02018G22KT 10SM CLR 03/00 A3042 RMK AO2 T00341005
KFLY 231435Z AUTO 01017G23KT 10SM CLR 04/M01 A3042 RMK AO2 T00391007
KFLY 231415Z AUTO 02015G19KT 10SM CLR 04/M01 A3038 RMK AO2 T00431011
KFLY 231355Z AUTO 02014G18KT 10SM CLR 07/M02 A3037 RMK AO2 T00691023
KFLY 231335Z AUTO 33006KT 10SM CLR 09/M04 A3036 RMK AO2 T00941037
KFLY 231315Z AUTO 34007KT 10SM CLR 09/M04 A3034 RMK AO2 T00921037
KFLY 231255Z AUTO 33006KT 10SM CLR 09/M04 A3034 RMK AO2 T00861038
KFLY 231235Z AUTO 33005KT 10SM CLR 09/M04 A3034 RMK AO2 T00871040
KFLY 231215Z AUTO 33005KT 10SM CLR 08/M04 A3032 RMK AO2 T00841040
KFLY 231155Z AUTO 27004KT 10SM CLR 08/M04 A3031 RMK AO2 T00831042 10126 20083
KFLY 231135Z AUTO 31006KT 10SM CLR 09/M04 A3030 RMK AO2 T00891041
KFLY 231115Z AUTO 34005KT 10SM CLR 10/M04 A3030 RMK AO2 T00951045
KFLY 231055Z AUTO 33007KT 10SM CLR 10/M05 A3029 RMK AO2 T00961047
KFLY 231035Z AUTO 34004KT 10SM CLR 10/M05 A3028 RMK AO2 T00961047
KFLY 231015Z AUTO 34007KT 10SM CLR 10/M05 A3025 RMK AO2 T01001050
KFLY 230955Z AUTO 34006G15KT 10SM CLR 11/M05 A3026 RMK AO2 T01061050
KFLY 230935Z AUTO 34008KT 10SM CLR 11/M05 A3026 RMK AO2 T01051048
KFLY 230915Z AUTO 36008KT 10SM CLR 09/M04 A3025 RMK AO2 T00941045
KFLY 230855Z AUTO 34007KT 10SM CLR 12/M05 A3025 RMK AO2 T01221050
KFLY 230835Z AUTO 32011G14KT 10SM CLR 12/M05 A3025 RMK AO2 T01231049
KFLY 230815Z AUTO 32010G16KT 10SM CLR 12/M05 A3024 RMK AO2 T01231049
KFLY 230755Z AUTO 30011G15KT 10SM CLR 11/M05 A3022 RMK AO2 T01131050
KFLY 230735Z AUTO 32010KT 10SM CLR 12/M05 A3024 RMK AO2 T01151048
KFLY 230715Z AUTO 32011KT 10SM CLR 12/M05 A3023 RMK AO2 T01211049
KFLY 230655Z AUTO 32011KT 10SM CLR 12/M05 A3025 RMK AO2 T01201049 401991033
KFLY 230635Z AUTO 30010KT 10SM CLR 11/M05 A3023 RMK AO2 T01111050
KFLY 230615Z AUTO 32006KT 10SM CLR 10/M05 A3024 RMK AO2 T00991049
KFLY 230555Z AUTO 32005KT 10SM CLR 11/M05 A3024 RMK AO2 T01061055 10144 20068
KFLY 230535Z AUTO 33006KT 10SM CLR 08/M05 A3025 RMK AO2 T00821050
KFLY 230515Z AUTO 33004KT 10SM CLR 10/M06 A3026 RMK AO2 T00981056
KFLY 230455Z AUTO 29006KT 10SM CLR 09/M05 A3024 RMK AO2 T00941054
KFLY 230435Z AUTO 25005KT 10SM CLR 10/M05 A3024 RMK AO2 T00961053
KFLY 230415Z AUTO 25008KT 10SM CLR 09/M06 A3024 RMK AO2 T00921056
KFLY 230355Z AUTO 00000KT 10SM CLR 08/M05 A3025 RMK AO2 T00791049
KFLY 230335Z AUTO 28004KT 10SM CLR 07/M05 A3024 RMK AO2 T00731047
KFLY 230315Z AUTO 31005KT 10SM CLR 08/M05 A3024 RMK AO2 T00761046
KFLY 230255Z AUTO 33005KT 10SM CLR 07/M05 A3024 RMK AO2 T00681047
KFLY 230235Z AUTO 32006KT 10SM CLR 08/M05 A3024 RMK AO2 T00781050
KFLY 230215Z AUTO 33005KT 10SM CLR 10/M06 A3024 RMK AO2 T01011060
KFLY 230155Z AUTO 34005KT 10SM CLR 11/M06 A3024 RMK AO2 T01051056
KFLY 230135Z AUTO 34005KT 10SM CLR 10/M05 A3024 RMK AO2 T01041050
KFLY 230115Z AUTO 33004KT 10SM CLR 10/M05 A3023 RMK AO2 T01031047
KFLY 230055Z AUTO 33003KT 10SM CLR 12/M05 A3022 RMK AO2 T01171049
KFLY 230035Z AUTO 23003KT 10SM CLR 12/M04 A3022 RMK AO2 T01171044
KFLY 230015Z AUTO 00000KT 10SM CLR 13/M05 A3022 RMK AO2 T01301046
KFLY 222355Z AUTO 00000KT 10SM CLR 15/M05 A3021 RMK AO2 T01461048 10199 20145
KFLY 222335Z AUTO 19003KT 10SM CLR 15/M04 A3022 RMK AO2 T01461045
KFLY 222315Z AUTO 00000KT 10SM CLR 16/M06 A3022 RMK AO2 T01621056
KFLY 222255Z AUTO 00000KT 10SM CLR 17/M06 A3020 RMK AO2 T01731063
KFLY 222235Z AUTO 22005KT 10SM CLR 18/M06 A3020 RMK AO2 T01801065
KFLY 222215Z AUTO 22008KT 10SM CLR 17/M07 A3020 RMK AO2 T01691067
KFLY 222155Z AUTO 23006KT 10SM CLR 16/M06 A3022 RMK AO2 T01601059
KFLY 222135Z AUTO 20009G15KT 10SM CLR 17/M07 A3021 RMK AO2 T01711069
KFLY 222115Z AUTO 00000KT 10SM CLR 18/M07 A3020 RMK AO2 T01751068
KFLY 222055Z AUTO 19007G16KT 10SM CLR 18/M07 A3019 RMK AO2 T01761070
KFLY 222035Z AUTO 18006KT 10SM CLR 19/M07 A3020 RMK AO2 T01881072
KFLY 222015Z AUTO 25008KT 210V270 10SM CLR 19/M06 A3020 RMK AO2 T01901065
KFLY 221955Z AUTO 25011G15KT 10SM CLR 20/M07 A3020 RMK AO2 T01991067
KFLY 221935Z AUTO 22003KT 10SM CLR 19/M06 A3021 RMK AO2 T01931065
KFLY 221915Z AUTO 24005KT 10SM CLR 18/M07 A3021 RMK AO2 T01811066
KFLY 221855Z AUTO 26011G16KT 10SM CLR 18/M07 A3022 RMK AO2 T01761066
KFLY 221835Z AUTO 25007KT 10SM CLR 17/M07 A3023 RMK AO2 T01711072
KFLY 221815Z AUTO 27008KT 240V300 10SM CLR 16/M07 A3024 RMK AO2 T01631073
KFLY 221755Z AUTO 25007G14KT 220V290 10SM CLR 15/M08 A3024 RMK AO2 T01521078 10153 21019
KFLY 221735Z AUTO 22008KT 10SM CLR 15/M08 A3026 RMK AO2 T01461084
KFLY 221715Z AUTO 26006KT 10SM CLR 14/M09 A3026 RMK AO2 T01361088
KFLY 221655Z AUTO 27006KT 10SM CLR 13/M10 A3027 RMK AO2 T01301098
KFLY 221635Z AUTO 24004KT 10SM CLR 11/M12 A3027 RMK AO2 T01131117
KFLY 221615Z AUTO 27004KT 10SM CLR 09/M12 A3027 RMK AO2 T00881122
KFLY 221555Z AUTO 00000KT 10SM CLR 08/M13 A3028 RMK AO2 T00781129
KFLY 221535Z AUTO 00000KT 10SM CLR 06/M13 A3027 RMK AO2 T00631129
KFLY 221515Z AUTO 28003KT 10SM CLR 05/M13 A3026 RMK AO2 T00501129
KFLY 221455Z AUTO 00000KT 10SM CLR 05/M13 A3027 RMK AO2 T00471135
KFLY 221435Z AUTO 00000KT 10SM CLR 03/M14 A3027 RMK AO2 T00331137
KFLY 221415Z AUTO 00000KT 10SM CLR 01/M13 A3027 RMK AO2 T00131128
KFLY 221355Z AUTO 00000KT 10SM CLR 00/M13 A3026 RMK AO2 T00011134
KFLY 221335Z AUTO 29004KT 10SM CLR 00/M13 A3025 RMK AO2 T10021128
KFLY 221315Z AUTO 00000KT 10SM CLR M02/M13 A3025 RMK AO2 T10171126
KFLY 221255Z AUTO 26004KT 10SM CLR M02/M13 A3024 RMK AO2 T10171126
KFLY 221235Z AUTO 25006KT 10SM CLR M01/M12 A3024 RMK AO2 T10151124
KFLY 221215Z AUTO 23003KT 10SM CLR M02/M12 A3024 RMK AO2 T10191125
KFLY 221155Z AUTO 21004KT 10SM CLR M01/M13 A3024 RMK AO2 T10101133 10007 21033
KFLY 221135Z AUTO 00000KT 10SM CLR M02/M12 A3024 RMK AO2 T10211124
KFLY 221115Z AUTO 16003KT 10SM CLR M02/M12 A3024 RMK AO2 T10241124
KFLY 221055Z AUTO 00000KT 10SM CLR M01/M13 A3023 RMK AO2 T10141128
KFLY 221035Z AUTO 26004KT 10SM CLR M02/M12 A3022 RMK AO2 T10241125
KFLY 221015Z AUTO 00000KT 10SM CLR M02/M12 A3022 RMK AO2 T10241124
KFLY 220955Z AUTO 26003KT 10SM CLR M02/M12 A3022 RMK AO2 T10211125
KFLY 220935Z AUTO 25003KT 10SM CLR 00/M14 A3022 RMK AO2 T10031136
KFLY 220915Z AUTO 26004KT 10SM CLR M01/M13 A3022 RMK AO2 T10061135
KFLY 220855Z AUTO 23005KT 10SM CLR 00/M13 A3022 RMK AO2 T10031131
KFLY 220835Z AUTO 18005KT 10SM CLR 00/M13 A3021 RMK AO2 T10011135
KFLY 220815Z AUTO 24006KT 10SM CLR 00/M14 A3021 RMK AO2 T00001136
KFLY 220755Z AUTO 23006KT 10SM CLR 00/M14 A3021 RMK AO2 T00001138
KFLY 220735Z AUTO 24007KT 10SM CLR 00/M14 A3021 RMK AO2 T00021140
KFLY 220715Z AUTO 24006KT 10SM CLR 01/M14 A3020 RMK AO2 T00061145
KFLY 220655Z AUTO 23005KT 10SM CLR 00/M15 A3020 RMK AO2 T10051146 401291018
KFLY 220635Z AUTO 25003KT 10SM CLR M01/M14 A3020 RMK AO2 T10091142
KFLY 220615Z AUTO 28006KT 10SM CLR M01/M14 A3020 RMK AO2 T10071142
KFLY 220555Z AUTO 25008KT 10SM CLR M02/M13 A3021 RMK AO2 T10181130 10062 21018
KFLY 220535Z AUTO 28004KT 10SM CLR M01/M13 A3020 RMK AO2 T10141128